Time;durP1;ratioP1;P1;durP2;ratioP2;P2;SDS_P1;SDS_P2;PMS_P1;PMS_P2;Temp;Humidity;BMP_temperature;BMP_pressure;BME280_temperature;BME280_humidity;BME280_pressure;Samples;Min_cycle;Max_cycle;Signal;HPM_P1;HPM_P2
2022/05/07 00:01:07;;;;;;;30.70;17.70;;;13.20;99.90;;;;;;7396819;19;20003;-65
2022/05/07 00:03:37;;;;;;;27.95;17.85;;;;;;;;;;7396594;19;20083;-66
2022/05/07 00:06:06;;;;;;;31.35;19.52;;;13.40;99.90;;;;;;7396326;19;20031;-66
2022/05/07 00:08:36;;;;;;;29.75;17.30;;;13.20;99.90;;;;;;7396491;19;20373;-66
2022/05/07 00:11:05;;;;;;;32.03;18.63;;;;;;;;;;7396291;19;20069;-65
2022/05/07 00:13:37;;;;;;;30.77;19.92;;;13.10;99.90;;;;;;7397605;19;20015;-66
2022/05/07 00:18:48;;;;;;;30.65;20.25;;;13.00;99.90;;;;;;7398234;19;20018;-66
2022/05/07 00:21:17;;;;;;;34.03;20.83;;;;;;;;;;7397116;19;20445;-65
2022/05/07 00:23:46;;;;;;;32.17;21.13;;;12.90;99.90;;;;;;7395509;19;20003;-66
2022/05/07 00:26:15;;;;;;;35.00;22.10;;;12.90;99.90;;;;;;7396156;19;20003;-68
2022/05/07 00:28:47;;;;;;;32.85;22.17;;;12.80;99.90;;;;;;7396029;19;20030;-66
2022/05/07 00:31:16;;;;;;;33.17;21.35;;;13.10;99.90;;;;;;7395625;19;20017;-66
2022/05/07 00:33:45;;;;;;;35.60;21.15;;;12.80;99.90;;;;;;7396066;19;20018;-66
2022/05/07 00:36:14;;;;;;;33.42;20.88;;;13.00;99.90;;;;;;7395551;19;20011;-67
2022/05/07 00:38:43;;;;;;;30.77;20.63;;;;;;;;;;7396089;19;20370;-67
2022/05/07 00:41:12;;;;;;;35.80;23.35;;;12.60;99.90;;;;;;7395478;19;20014;-66
2022/05/07 00:43:42;;;;;;;31.80;22.08;;;12.90;99.90;;;;;;7395253;19;20065;-66
2022/05/07 00:46:23;;;;;;;34.67;21.85;;;12.80;99.90;;;;;;7395769;19;20017;-66
2022/05/07 00:48:52;;;;;;;36.20;22.10;;;12.90;99.90;;;;;;7395074;19;20027;-65
2022/05/07 00:51:33;;;;;;;38.45;24.05;;;12.80;99.90;;;;;;7395146;19;20512;-66
2022/05/07 00:54:04;;;;;;;36.25;23.08;;;13.00;99.90;;;;;;7394076;19;20038;-66
2022/05/07 00:56:34;;;;;;;36.60;22.58;;;13.00;99.90;;;;;;7399058;19;20038;-66
2022/05/07 00:59:03;;;;;;;38.63;22.88;;;12.90;99.90;;;;;;7393252;19;20477;-64
2022/05/07 01:01:35;;;;;;;35.30;22.13;;;13.00;99.90;;;;;;7395301;19;20006;-65
2022/05/07 01:04:04;;;;;;;36.17;21.65;;;13.00;99.90;;;;;;7395354;19;20015;-65
2022/05/07 01:06:33;;;;;;;40.72;24.17;;;13.10;99.90;;;;;;7394490;19;20009;-65
2022/05/07 01:09:04;;;;;;;35.58;22.70;;;13.30;99.90;;;;;;7394529;19;20080;-66
2022/05/07 01:11:33;;;;;;;35.20;23.55;;;11.80;99.90;;;;;;7396113;19;20014;-66
2022/05/07 01:14:02;;;;;;;37.05;23.58;;;13.30;99.90;;;;;;7399172;19;20016;-66
2022/05/07 01:16:34;;;;;;;35.42;22.20;;;13.40;99.90;;;;;;7394229;19;20011;-66
2022/05/07 01:19:04;;;;;;;37.30;22.05;;;13.10;99.90;;;;;;7393295;19;20006;-66
2022/05/07 01:21:35;;;;;;;35.05;23.02;;;13.10;99.90;;;;;;7394441;19;20466;-66
2022/05/07 01:24:05;;;;;;;41.55;24.63;;;13.20;99.90;;;;;;7393932;19;20022;-67
2022/05/07 01:26:34;;;;;;;34.58;23.63;;;13.00;99.90;;;;;;7399958;19;20015;-66
2022/05/07 01:29:04;;;;;;;38.95;24.40;;;13.20;99.90;;;;;;7402718;19;20014;-67
2022/05/07 01:31:33;;;;;;;39.53;23.35;;;13.00;99.90;;;;;;7401411;19;20018;-66
2022/05/07 01:34:01;;;;;;;35.10;23.40;;;13.20;99.90;;;;;;7401477;19;20078;-67
2022/05/07 01:36:30;;;;;;;38.08;24.10;;;13.40;99.90;;;;;;7404341;19;20484;-67
2022/05/07 01:39:02;;;;;;;37.65;23.70;;;13.20;99.90;;;;;;7399958;19;20007;-66
2022/05/07 01:41:31;;;;;;;35.67;23.42;;;13.10;99.90;;;;;;7401015;19;20469;-66
2022/05/07 01:44:00;;;;;;;39.08;25.00;;;13.10;99.90;;;;;;7401405;19;20074;-66
2022/05/07 01:49:12;;;;;;;40.22;23.92;;;12.70;99.90;;;;;;7401551;19;20006;-66
2022/05/07 01:51:41;;;;;;;36.90;24.00;;;;;;;;;;7400785;19;20038;-66
2022/05/07 01:54:12;;;;;;;42.05;24.17;;;13.20;99.90;;;;;;7398177;19;20038;-66
2022/05/07 01:56:41;;;;;;;36.28;22.83;;;13.00;99.90;;;;;;7401188;19;20030;-66
2022/05/07 01:59:10;;;;;;;36.90;23.65;;;13.00;99.90;;;;;;7398539;19;20099;-66
2022/05/07 02:01:39;;;;;;;37.50;23.83;;;13.00;99.90;;;;;;7401003;19;20078;-66
2022/05/07 02:04:08;;;;;;;39.20;24.27;;;12.90;99.90;;;;;;7403614;19;20022;-67
2022/05/07 02:06:37;;;;;;;38.20;23.10;;;13.10;99.90;;;;;;7400638;19;20376;-67
2022/05/07 02:09:07;;;;;;;42.90;25.13;;;12.90;99.90;;;;;;7400203;19;20096;-66
2022/05/07 02:11:39;;;;;;;38.90;24.65;;;13.00;99.90;;;;;;7400623;19;20015;-66
2022/05/07 02:14:08;;;;;;;40.65;25.50;;;;;;;;;;7400889;19;20010;-66
2022/05/07 02:16:37;;;;;;;41.17;24.42;;;13.20;99.90;;;;;;7400942;19;20019;-66
2022/05/07 02:19:06;;;;;;;37.80;24.75;;;12.90;99.90;;;;;;7398800;19;19998;-66
2022/05/07 02:21:35;;;;;;;41.20;24.42;;;13.00;99.90;;;;;;7404101;19;20011;-66
2022/05/07 02:24:04;;;;;;;42.72;26.30;;;13.00;99.90;;;;;;7399556;19;20002;-66
2022/05/07 02:26:33;;;;;;;40.78;25.55;;;12.90;99.90;;;;;;7400206;19;20372;-66
2022/05/07 02:29:05;;;;;;;43.13;26.23;;;12.80;99.90;;;;;;7399827;19;20033;-66
2022/05/07 02:31:34;;;;;;;43.20;26.52;;;12.90;99.90;;;;;;7400260;19;20090;-66
2022/05/07 02:34:02;;;;;;;44.60;26.60;;;12.80;99.90;;;;;;7399717;19;20015;-66
2022/05/07 02:36:32;;;;;;;43.63;26.02;;;12.80;99.90;;;;;;7401927;19;20014;-66
2022/05/07 02:39:01;;;;;;;44.20;27.30;;;13.00;99.90;;;;;;7402471;19;20040;-66
2022/05/07 02:44:14;;;;;;;42.65;26.15;;;13.20;99.90;;;;;;7399404;19;20007;-66
2022/05/07 02:46:43;;;;;;;43.03;27.13;;;12.90;99.90;;;;;;7399733;19;20437;-66
2022/05/07 02:49:12;;;;;;;46.53;26.85;;;12.90;99.90;;;;;;7399373;19;20090;-66
2022/05/07 02:51:41;;;;;;;45.03;26.63;;;12.90;99.90;;;;;;7399127;19;20007;-66
2022/05/07 02:54:10;;;;;;;44.97;27.23;;;13.00;99.90;;;;;;7398923;19;20019;-66
2022/05/07 02:56:39;;;;;;;41.55;26.15;;;12.90;99.90;;;;;;7398902;19;20014;-65
2022/05/07 02:59:08;;;;;;;47.88;26.83;;;12.90;99.90;;;;;;7397605;19;20002;-66
2022/05/07 03:01:41;;;;;;;43.33;28.02;;;12.90;99.90;;;;;;7398939;19;20034;-66
2022/05/07 03:04:10;;;;;;;48.70;27.83;;;;;;;;;;7398969;19;20476;-67
2022/05/07 03:06:40;;;;;;;48.03;26.90;;;12.80;99.90;;;;;;7402456;19;20019;-67
2022/05/07 03:09:10;;;;;;;44.03;25.92;;;12.90;99.90;;;;;;7401911;19;20025;-65
2022/05/07 03:11:39;;;;;;;40.50;26.13;;;12.90;99.90;;;;;;7400507;19;20027;-66
2022/05/07 03:14:08;;;;;;;44.20;26.35;;;;;;;;;;7399030;19;20009;-67
2022/05/07 03:16:40;;;;;;;46.00;26.42;;;12.80;99.90;;;;;;7398389;19;20010;-67
2022/05/07 03:19:10;;;;;;;41.10;24.92;;;12.90;99.90;;;;;;7397036;19;20010;-67
2022/05/07 03:21:38;;;;;;;43.75;26.38;;;13.10;99.90;;;;;;7399703;19;20019;-67
2022/05/07 03:24:08;;;;;;;44.45;27.10;;;12.80;99.90;;;;;;7397205;19;20066;-67
2022/05/07 03:26:37;;;;;;;42.60;26.10;;;12.80;99.90;;;;;;7398245;19;20481;-67
2022/05/07 03:29:06;;;;;;;45.13;27.75;;;12.70;99.90;;;;;;7400774;19;20345;-67
2022/05/07 03:31:35;;;;;;;46.00;26.92;;;12.80;99.90;;;;;;7398060;19;20080;-67
2022/05/07 03:34:06;;;;;;;44.10;27.08;;;12.50;99.90;;;;;;7397665;19;20006;-67
2022/05/07 03:36:35;;;;;;;47.25;28.00;;;12.70;99.90;;;;;;7400833;19;20040;-67
2022/05/07 03:39:04;;;;;;;46.97;27.77;;;12.80;99.90;;;;;;7396416;19;20006;-67
2022/05/07 03:41:33;;;;;;;41.75;25.50;;;12.90;99.90;;;;;;7397697;19;20011;-67
2022/05/07 03:44:02;;;;;;;39.40;25.70;;;12.90;99.90;;;;;;7397376;19;20420;-67
2022/05/07 03:46:31;;;;;;;42.35;25.73;;;12.90;99.90;;;;;;7401557;19;20042;-67
2022/05/07 03:49:00;;;;;;;42.47;27.67;;;12.90;99.90;;;;;;7395250;19;20077;-68
2022/05/07 03:53:29;;;;;;;46.60;27.85;;;13.00;99.90;;;;;;7397124;19;20543;-67
2022/05/07 03:54:18;;;;;;;44.22;26.75;;;12.90;99.90;;;;;;7396788;19;20021;-67
2022/05/07 03:56:47;;;;;;;44.38;26.58;;;12.70;99.90;;;;;;7397628;19;20011;-67
2022/05/07 03:59:16;;;;;;;42.25;25.83;;;;;;;;;;7395885;19;20002;-67
2022/05/07 04:01:45;;;;;;;49.47;29.48;;;12.80;99.90;;;;;;7397058;19;20090;-66
2022/05/07 04:04:14;;;;;;;49.47;26.83;;;;;;;;;;7396747;19;20015;-66
2022/05/07 04:06:46;;;;;;;47.47;28.98;;;13.20;99.90;;;;;;7396959;19;20081;-66
2022/05/07 04:09:16;;;;;;;46.65;28.10;;;;;;;;;;7396769;19;20018;-66
2022/05/07 04:11:45;;;;;;;47.42;27.60;;;13.10;99.90;;;;;;7396390;19;20006;-67
2022/05/07 04:14:14;;;;;;;47.70;29.27;;;13.10;99.90;;;;;;7396464;19;20366;-67
2022/05/07 04:16:43;;;;;;;44.85;27.63;;;13.20;99.90;;;;;;7396788;19;20002;-67
2022/05/07 04:19:13;;;;;;;48.05;28.27;;;;;;;;;;7396499;19;20011;-67
2022/05/07 04:21:44;;;;;;;49.22;28.45;;;13.10;99.90;;;;;;7396533;19;20007;-67
2022/05/07 04:24:13;;;;;;;47.20;28.08;;;12.80;99.90;;;;;;7395476;19;20038;-67
2022/05/07 04:26:42;;;;;;;48.08;28.05;;;13.20;99.90;;;;;;7395928;19;20482;-67
2022/05/07 04:29:16;;;;;;;49.45;28.80;;;;;;;;;;7396505;19;20014;-67
2022/05/07 04:31:46;;;;;;;47.38;28.30;;;13.20;99.90;;;;;;7395819;19;20006;-66
2022/05/07 04:34:15;;;;;;;47.60;28.38;;;13.10;99.90;;;;;;7395695;19;20006;-66
2022/05/07 04:36:47;;;;;;;47.72;28.05;;;13.10;99.90;;;;;;7398778;19;20342;-67
2022/05/07 04:39:16;;;;;;;49.20;28.73;;;13.20;99.90;;;;;;7395156;19;20002;-67
2022/05/07 04:41:45;;;;;;;48.17;28.27;;;13.20;99.90;;;;;;7395644;19;20012;-67
2022/05/07 04:44:14;;;;;;;49.22;28.92;;;;;;;;;;7395250;19;20442;-69
2022/05/07 04:46:43;;;;;;;48.92;29.38;;;13.20;99.90;;;;;;7395660;19;20042;-67
2022/05/07 04:49:14;;;;;;;47.25;27.77;;;13.30;99.90;;;;;;7395702;19;20026;-67
2022/05/07 04:51:43;;;;;;;47.47;29.98;;;13.30;99.90;;;;;;7395772;19;20006;-66
2022/05/07 04:54:14;;;;;;;45.53;28.83;;;13.50;99.90;;;;;;7397472;19;20033;-66
2022/05/07 04:56:43;;;;;;;46.60;28.67;;;13.80;99.90;;;;;;7395755;19;20081;-66
2022/05/07 04:59:12;;;;;;;48.63;28.85;;;;;;;;;;7394869;19;20066;-66
2022/05/07 05:01:41;;;;;;;53.17;29.00;;;13.40;99.90;;;;;;7394199;19;20017;-66
2022/05/07 05:04:10;;;;;;;52.97;30.02;;;13.80;99.90;;;;;;7395411;19;20385;-66
2022/05/07 05:06:40;;;;;;;45.45;28.60;;;13.90;99.90;;;;;;7398417;19;20018;-66
2022/05/07 05:09:10;;;;;;;46.65;28.58;;;13.80;99.90;;;;;;7395150;19;20009;-66
2022/05/07 05:11:43;;;;;;;50.40;29.42;;;13.80;99.90;;;;;;7398498;19;20014;-66
2022/05/07 05:16:53;;;;;;;49.00;29.50;;;13.80;99.90;;;;;;7394103;19;20366;-66
2022/05/07 05:19:22;;;;;;;50.72;28.83;;;13.90;99.90;;;;;;7394205;19;19999;-66
2022/05/07 05:21:51;;;;;;;46.13;29.25;;;14.10;99.90;;;;;;7394350;19;20014;-66
2022/05/07 05:24:20;;;;;;;48.42;29.17;;;14.00;99.90;;;;;;7393931;19;20003;-66
2022/05/07 05:26:51;;;;;;;48.92;29.75;;;14.10;99.90;;;;;;7394574;19;20461;-66
2022/05/07 05:29:20;;;;;;;44.00;27.85;;;14.20;99.90;;;;;;7394788;19;20078;-66
2022/05/07 05:31:49;;;;;;;43.35;27.58;;;;;;;;;;7394471;19;20510;-66
2022/05/07 05:34:18;;;;;;;44.80;27.27;;;14.10;99.90;;;;;;7394179;19;20007;-66
2022/05/07 05:36:47;;;;;;;49.35;28.95;;;;;;;;;;7394045;19;20011;-67
2022/05/07 05:39:16;;;;;;;48.38;27.95;;;;;;;;;;7393106;19;20069;-67
2022/05/07 05:41:46;;;;;;;46.58;27.45;;;;;;;;;;7393448;19;20017;-67
2022/05/07 05:44:17;;;;;;;46.25;27.63;;;14.40;99.90;;;;;;7394750;19;20011;-67
2022/05/07 05:46:46;;;;;;;41.97;25.75;;;14.10;99.90;;;;;;7393363;19;20041;-67
2022/05/07 05:49:15;;;;;;;43.80;26.63;;;14.30;99.90;;;;;;7393251;19;20030;-67
2022/05/07 05:51:44;;;;;;;43.25;26.65;;;;;;;;;;7393203;19;20031;-67
2022/05/07 05:54:13;;;;;;;44.63;28.02;;;14.30;99.90;;;;;;7392734;19;20101;-67
2022/05/07 05:56:42;;;;;;;46.15;28.00;;;14.50;99.90;;;;;;7393139;19;20030;-67
2022/05/07 05:59:11;;;;;;;41.28;27.23;;;14.30;99.90;;;;;;7392444;19;20070;-67
2022/05/07 06:01:42;;;;;;;44.90;26.52;;;14.40;99.90;;;;;;7394750;19;20027;-67
2022/05/07 06:04:11;;;;;;;43.30;27.65;;;14.50;99.90;;;;;;7394368;19;20090;-67
2022/05/07 06:06:40;;;;;;;43.25;27.23;;;14.50;99.90;;;;;;7393343;19;20066;-67
2022/05/07 06:09:09;;;;;;;42.58;26.63;;;;;;;;;;7392849;19;20031;-67
2022/05/07 06:11:39;;;;;;;40.60;25.63;;;;;;;;;;7393278;19;20006;-67
2022/05/07 06:14:09;;;;;;;44.08;28.23;;;14.70;99.90;;;;;;7399886;19;20074;-67
2022/05/07 06:16:38;;;;;;;42.75;27.80;;;14.80;99.90;;;;;;7401001;19;20010;-67
2022/05/07 06:19:10;;;;;;;40.75;24.40;;;14.90;99.90;;;;;;7402235;19;20369;-67
2022/05/07 06:21:39;;;;;;;44.45;27.20;;;14.90;99.90;;;;;;7399690;19;20017;-67
2022/05/07 06:29:31;;;;;;;42.00;26.05;;;15.20;99.90;;;;;;7399633;19;20018;-67
2022/05/07 06:32:00;;;;;;;43.85;26.63;;;15.20;99.90;;;;;;7399422;19;20021;-67
2022/05/07 06:34:32;;;;;;;42.85;26.48;;;15.30;99.90;;;;;;7399293;19;20013;-67
2022/05/07 06:37:01;;;;;;;41.00;25.38;;;15.20;99.90;;;;;;7404105;19;20007;-68
2022/05/07 06:39:30;;;;;;;43.60;27.05;;;15.40;99.90;;;;;;7398185;19;20471;-67
2022/05/07 06:41:59;;;;;;;41.22;26.42;;;15.50;99.90;;;;;;7398735;19;20347;-67
2022/05/07 06:44:28;;;;;;;42.00;26.83;;;15.60;99.90;;;;;;7398894;19;20015;-66
2022/05/07 06:46:57;;;;;;;38.65;25.65;;;15.70;99.90;;;;;;7398789;19;20014;-66
2022/05/07 06:49:26;;;;;;;39.30;26.67;;;15.70;99.90;;;;;;7398814;19;20025;-66
2022/05/07 06:51:58;;;;;;;44.80;26.83;;;16.10;99.90;;;;;;7399499;19;20013;-67
2022/05/07 06:54:27;;;;;;;42.35;25.83;;;16.00;99.90;;;;;;7397772;19;20088;-66
2022/05/07 06:56:56;;;;;;;36.17;23.67;;;16.00;99.90;;;;;;7398905;19;20001;-66
2022/05/07 06:59:25;;;;;;;41.20;25.45;;;16.70;99.90;;;;;;7398358;19;20034;-65
2022/05/07 07:01:55;;;;;;;37.15;24.33;;;16.20;99.90;;;;;;7398681;19;20006;-66
2022/05/07 07:04:24;;;;;;;38.55;24.20;;;16.30;99.70;;;;;;7402341;19;20037;-66
2022/05/07 07:06:54;;;;;;;38.75;24.25;;;16.50;99.90;;;;;;7398030;19;20010;-66
2022/05/07 07:09:26;;;;;;;34.10;22.45;;;16.20;99.60;;;;;;7399863;19;20014;-67
2022/05/07 07:11:54;;;;;;;32.38;21.70;;;16.30;98.80;;;;;;7398011;19;20135;-66
2022/05/07 07:14:24;;;;;;;35.25;23.23;;;16.30;98.60;;;;;;7397555;19;20007;-66
2022/05/07 07:16:53;;;;;;;34.22;21.30;;;16.30;99.10;;;;;;7397210;19;20010;-66
2022/05/07 07:19:22;;;;;;;34.97;21.30;;;15.90;99.30;;;;;;7397079;19;20007;-66
2022/05/07 07:21:53;;;;;;;33.45;22.67;;;16.40;98.40;;;;;;7397839;19;19998;-66
2022/05/07 07:24:25;;;;;;;34.80;22.75;;;16.60;98.40;;;;;;7396152;19;20002;-66
2022/05/07 07:26:54;;;;;;;39.03;22.50;;;16.50;98.00;;;;;;7400114;19;20017;-66
2022/05/07 07:29:23;;;;;;;36.10;22.63;;;16.60;98.40;;;;;;7397726;19;20021;-66
2022/05/07 07:31:52;;;;;;;38.08;24.25;;;16.80;98.20;;;;;;7397733;19;20031;-66
2022/05/07 07:34:21;;;;;;;36.95;24.80;;;16.70;98.00;;;;;;7396804;19;20537;-66
2022/05/07 07:36:51;;;;;;;36.30;23.90;;;17.00;98.00;;;;;;7397692;19;20026;-67
2022/05/07 07:39:20;;;;;;;35.22;22.52;;;16.90;97.60;;;;;;7396844;19;20006;-66
2022/05/07 07:41:52;;;;;;;37.95;23.48;;;17.30;98.80;;;;;;7396581;19;20016;-67
2022/05/07 07:44:21;;;;;;;35.97;23.77;;;17.30;97.50;;;;;;7399451;19;20319;-66
2022/05/07 07:49:32;;;;;;;38.13;22.65;;;19.20;98.10;;;;;;7396707;19;20006;-67
2022/05/07 07:52:01;;;;;;;32.83;21.25;;;17.50;97.50;;;;;;7396993;19;20013;-67
2022/05/07 07:54:30;;;;;;;38.42;22.30;;;17.40;97.10;;;;;;7395025;19;20365;-66
2022/05/07 07:57:02;;;;;;;31.45;22.13;;;17.50;97.10;;;;;;7396217;19;20388;-66
2022/05/07 07:59:32;;;;;;;31.65;21.77;;;17.60;96.80;;;;;;7395859;19;20019;-66
2022/05/07 08:02:01;;;;;;;33.90;22.55;;;17.60;96.30;;;;;;7401408;19;20006;-66
2022/05/07 08:04:30;;;;;;;30.63;21.67;;;17.70;96.40;;;;;;7396175;19;20002;-66
2022/05/07 08:12:25;;;;;;;34.75;22.20;;;17.80;96.00;;;;;;7395683;19;20018;-66
2022/05/07 08:14:54;;;;;;;33.05;22.38;;;17.90;96.30;;;;;;7396317;19;20015;-66
2022/05/07 08:17:23;;;;;;;31.38;21.58;;;18.20;95.90;;;;;;7397211;19;20011;-66
2022/05/07 08:19:52;;;;;;;33.63;22.52;;;18.00;95.90;;;;;;7396166;19;20010;-67
2022/05/07 08:22:21;;;;;;;32.47;21.70;;;18.10;95.50;;;;;;7396363;19;20024;-66
2022/05/07 08:24:50;;;;;;;35.33;21.80;;;18.10;95.80;;;;;;7394493;19;20011;-66
2022/05/07 08:27:19;;;;;;;30.67;20.92;;;18.40;95.30;;;;;;7395418;19;20010;-66
2022/05/07 08:29:51;;;;;;;27.83;19.48;;;18.60;95.30;;;;;;7396115;19;20006;-66
2022/05/07 08:32:20;;;;;;;35.85;21.40;;;18.80;94.90;;;;;;7395094;19;20014;-67
2022/05/07 08:34:50;;;;;;;30.30;22.13;;;19.00;94.90;;;;;;7395817;19;20014;-67
2022/05/07 08:37:19;;;;;;;29.83;20.95;;;19.10;94.70;;;;;;7394820;19;20010;-67
2022/05/07 08:39:48;;;;;;;32.92;20.80;;;19.30;94.50;;;;;;7397553;19;20177;-67
2022/05/07 08:42:18;;;;;;;32.67;22.13;;;19.40;94.40;;;;;;7395107;19;20038;-66
2022/05/07 08:44:50;;;;;;;30.10;21.23;;;19.30;94.10;;;;;;7395035;19;20477;-66
2022/05/07 08:47:19;;;;;;;31.92;20.33;;;19.40;93.70;;;;;;7394759;19;20043;-66
2022/05/07 08:49:48;;;;;;;32.95;21.88;;;18.90;93.90;;;;;;7394396;19;20017;-66
2022/05/07 08:52:17;;;;;;;34.67;22.60;;;19.10;93.90;;;;;;7397449;19;20010;-66
2022/05/07 08:54:47;;;;;;;39.17;24.80;;;18.70;94.40;;;;;;7392861;19;20014;-66
2022/05/07 08:57:17;;;;;;;42.00;25.80;;;18.90;95.30;;;;;;7394144;19;20362;-66
2022/05/07 08:59:46;;;;;;;40.95;24.73;;;19.00;95.20;;;;;;7394694;19;20077;-66
2022/05/07 09:02:17;;;;;;;40.28;26.13;;;19.20;95.00;;;;;;7394174;19;20015;-66
2022/05/07 09:04:57;;;;;;;37.55;24.55;;;19.20;94.70;;;;;;7394522;19;20003;-66
2022/05/07 09:07:27;;;;;;;37.55;23.65;;;19.30;94.70;;;;;;7394269;19;20019;-66
2022/05/07 09:09:56;;;;;;;38.90;24.67;;;19.30;94.60;;;;;;7398157;19;20011;-66
2022/05/07 09:12:26;;;;;;;34.70;22.30;;;19.40;94.20;;;;;;7394601;19;20006;-66
2022/05/07 09:14:56;;;;;;;34.72;22.65;;;19.70;94.20;;;;;;7394163;19;20034;-66
2022/05/07 09:17:27;;;;;;;38.30;24.05;;;19.90;93.80;;;;;;7392499;19;20010;-65
2022/05/07 09:19:57;;;;;;;39.40;24.02;;;20.20;93.80;;;;;;7394703;19;20009;-66
2022/05/07 09:22:26;;;;;;;35.03;22.75;;;20.30;93.50;;;;;;7394368;19;20014;-66
2022/05/07 09:24:56;;;;;;;35.75;22.25;;;20.70;93.20;;;;;;7393218;19;20370;-66
2022/05/07 09:27:25;;;;;;;35.83;22.67;;;21.10;92.50;;;;;;7393978;19;20013;-67
2022/05/07 09:30:02;;;;;;;35.95;23.38;;;21.40;91.30;;;;;;7393499;19;20370;-66
2022/05/07 09:32:41;;;;;;;34.65;22.23;;;20.60;92.00;;;;;;7396615;19;20026;-67
2022/05/07 09:38:01;;;;;;;37.53;23.08;;;21.00;91.90;;;;;;7393998;19;20021;-66
2022/05/07 09:40:31;;;;;;;38.28;24.02;;;20.40;92.10;;;;;;7398214;19;20014;-66
2022/05/07 09:43:00;;;;;;;37.30;24.67;;;20.40;92.30;;;;;;7396447;19;20011;-66
2022/05/07 09:45:30;;;;;;;37.25;24.98;;;20.40;92.20;;;;;;7393880;19;20002;-67
2022/05/07 09:48:03;;;;;;;39.28;24.48;;;20.20;92.60;;;;;;7397660;19;20334;-66
2022/05/07 09:50:47;;;;;;;39.75;25.40;;;20.10;92.80;;;;;;7400989;19;20014;-66
2022/05/07 09:58:41;;;;;;;38.40;24.42;;;20.20;92.80;;;;;;7401870;19;20010;-66
2022/05/07 10:01:25;;;;;;;38.90;23.70;;;20.40;92.80;;;;;;7399116;19;20027;-66
2022/05/07 10:04:08;;;;;;;39.63;25.00;;;20.60;92.50;;;;;;7400260;19;20489;-66
2022/05/07 10:06:56;;;;;;;41.90;25.23;;;20.90;92.10;;;;;;7400714;19;20078;-66
2022/05/07 10:09:36;;;;;;;37.63;23.73;;;21.00;91.60;;;;;;7400166;19;20031;-66
2022/05/07 10:12:07;;;;;;;37.53;23.77;;;20.60;92.30;;;;;;7400096;19;20075;-66
2022/05/07 10:14:36;;;;;;;38.38;22.70;;;22.80;92.60;;;;;;7399320;19;20015;-66
2022/05/07 10:17:12;;;;;;;31.17;21.00;;;20.60;92.00;;;;;;7402311;19;20086;-66
2022/05/07 10:19:45;;;;;;;32.13;19.95;;;20.50;91.60;;;;;;7398879;19;20011;-66
2022/05/07 10:22:21;;;;;;;29.13;19.92;;;20.60;91.50;;;;;;7396470;19;20014;-66
2022/05/07 10:24:51;;;;;;;33.88;21.25;;;20.70;91.50;;;;;;7397491;19;20011;-66
2022/05/07 10:27:24;;;;;;;34.25;21.75;;;20.80;91.90;;;;;;7399625;19;20031;-66
2022/05/07 10:29:53;;;;;;;33.80;21.52;;;20.70;91.50;;;;;;7399575;19;20003;-66
2022/05/07 10:32:22;;;;;;;32.45;21.88;;;20.90;92.00;;;;;;7399229;19;20002;-66
2022/05/07 10:34:57;;;;;;;35.97;22.58;;;20.90;92.10;;;;;;7403498;19;20010;-66
2022/05/07 10:37:26;;;;;;;30.50;19.83;;;21.00;91.60;;;;;;7399660;19;20002;-66
2022/05/07 10:39:56;;;;;;;32.40;20.67;;;21.00;91.70;;;;;;7402082;19;20445;-66
2022/05/07 10:42:27;;;;;;;34.70;21.08;;;20.90;91.60;;;;;;7396597;19;20369;-66
2022/05/07 10:44:56;;;;;;;32.22;20.77;;;21.00;91.40;;;;;;7398850;19;20508;-66
2022/05/07 10:47:25;;;;;;;36.45;21.08;;;21.10;91.30;;;;;;7398735;19;20019;-66
2022/05/07 10:49:58;;;;;;;33.72;20.92;;;20.80;91.50;;;;;;7399198;19;20019;-67
2022/05/07 10:52:31;;;;;;;37.30;21.65;;;21.20;91.60;;;;;;7398266;19;20015;-67
2022/05/07 10:55:12;;;;;;;33.55;20.95;;;21.00;91.40;;;;;;7397464;19;20085;-67
2022/05/07 10:57:43;;;;;;;34.55;21.10;;;21.00;90.90;;;;;;7400364;19;20011;-67
2022/05/07 11:00:14;;;;;;;35.35;21.48;;;20.90;91.70;;;;;;7398743;19;20346;-66
2022/05/07 11:02:44;;;;;;;34.05;19.98;;;20.90;91.40;;;;;;7398978;19;19998;-67
2022/05/07 11:05:16;;;;;;;34.10;20.10;;;21.20;91.50;;;;;;7398774;19;20006;-67
2022/05/07 11:07:46;;;;;;;33.50;20.48;;;21.10;91.50;;;;;;7400025;19;20007;-67
2022/05/07 11:10:15;;;;;;;31.73;21.00;;;21.30;91.60;;;;;;7399140;19;20509;-67
2022/05/07 11:12:44;;;;;;;32.53;20.88;;;21.50;91.20;;;;;;7398200;19;20074;-67
2022/05/07 11:15:14;;;;;;;32.28;21.75;;;21.80;90.60;;;;;;7397292;19;20323;-67
2022/05/07 11:17:43;;;;;;;33.75;21.10;;;21.70;90.30;;;;;;7397394;19;20011;-67
2022/05/07 11:20:15;;;;;;;28.80;19.13;;;21.60;90.30;;;;;;7396569;19;20352;-67
2022/05/07 11:22:46;;;;;;;33.72;20.90;;;21.60;90.20;;;;;;7395499;19;20080;-66
2022/05/07 11:25:15;;;;;;;30.98;19.65;;;21.80;90.20;;;;;;7398899;19;20017;-66
2022/05/07 11:27:46;;;;;;;29.88;19.77;;;22.10;89.70;;;;;;7397355;19;20015;-65
2022/05/07 11:30:16;;;;;;;30.95;19.17;;;22.00;89.10;;;;;;7396971;19;20486;-66
2022/05/07 11:32:45;;;;;;;30.90;19.20;;;22.20;88.50;;;;;;7397436;19;20034;-66
2022/05/07 11:35:17;;;;;;;27.63;18.75;;;22.00;88.30;;;;;;7396679;19;20354;-65
2022/05/07 11:37:47;;;;;;;26.35;16.55;;;22.10;88.60;;;;;;7397338;19;20006;-65
2022/05/07 11:40:28;;;;;;;23.73;16.27;;;22.40;87.20;;;;;;7396520;19;20010;-66
2022/05/07 11:45:25;;;;;;;23.23;15.63;;;22.60;87.00;;;;;;7397709;19;20011;-65
2022/05/07 11:45:45;;;;;;;21.67;15.00;;;22.70;86.10;;;;;;7396515;19;20362;-66
2022/05/07 11:48:18;;;;;;;23.02;14.80;;;22.60;85.30;;;;;;7396588;19;20032;-66
2022/05/07 11:50:57;;;;;;;23.15;15.02;;;22.70;84.90;;;;;;7396460;19;19998;-65
2022/05/07 11:53:30;;;;;;;21.88;15.25;;;22.80;83.20;;;;;;7396394;19;20007;-65
2022/05/07 11:56:11;;;;;;;26.88;16.30;;;23.20;83.60;;;;;;7395385;19;20160;-65
2022/05/07 11:58:44;;;;;;;22.65;13.90;;;23.00;79.70;;;;;;7398315;19;20078;-69
2022/05/07 12:01:21;;;;;;;20.02;14.40;;;23.30;81.80;;;;;;7396328;19;20002;-65
2022/05/07 12:03:50;;;;;;;22.38;14.45;;;24.00;81.90;;;;;;7397133;19;20042;-66
2022/05/07 12:06:30;;;;;;;20.10;13.98;;;24.50;78.60;;;;;;7396515;19;20017;-66
2022/05/07 12:08:59;;;;;;;22.23;14.80;;;24.60;75.80;;;;;;7395954;19;20077;-66
2022/05/07 12:11:31;;;;;;;20.92;14.85;;;24.80;74.70;;;;;;7396041;19;20014;-66
2022/05/07 12:14:00;;;;;;;17.23;12.10;;;24.00;74.30;;;;;;7396273;19;20009;-66
2022/05/07 12:19:12;;;;;;;16.55;10.40;;;23.80;75.30;;;;;;7396192;19;20014;-65
2022/05/07 12:29:52;;;;;;;18.90;11.70;;;22.10;83.10;;;;;;7395674;19;20006;-65
2022/05/07 12:32:23;;;;;;;18.02;12.43;;;21.80;86.10;;;;;;7396619;19;20350;-66
2022/05/07 12:34:52;;;;;;;19.00;11.60;;;21.40;88.30;;;;;;7395808;19;20026;-66
2022/05/07 12:37:23;;;;;;;20.20;13.43;;;21.50;89.00;;;;;;7396370;19;20027;-66
2022/05/07 12:39:52;;;;;;;19.42;12.07;;;21.40;89.40;;;;;;7395650;19;20078;-66
2022/05/07 12:42:23;;;;;;;21.15;13.52;;;21.50;90.10;;;;;;7397491;19;20085;-66
2022/05/07 12:44:53;;;;;;;22.52;13.32;;;21.30;90.00;;;;;;7395182;19;20010;-66
2022/05/07 12:47:23;;;;;;;17.60;11.98;;;21.70;89.90;;;;;;7395213;19;20026;-66
2022/05/07 12:49:52;;;;;;;19.15;12.07;;;21.90;89.30;;;;;;7397698;19;20078;-66
2022/05/07 12:52:24;;;;;;;17.27;12.40;;;21.90;88.80;;;;;;7395634;19;20017;-66
2022/05/07 12:54:53;;;;;;;16.40;11.88;;;21.90;88.40;;;;;;7396328;19;20011;-66
2022/05/07 12:57:22;;;;;;;16.67;10.77;;;22.20;88.00;;;;;;7394890;19;20014;-65
2022/05/07 12:59:52;;;;;;;13.60;8.38;;;22.40;87.20;;;;;;7394406;19;20010;-65
2022/05/07 13:02:21;;;;;;;12.43;8.63;;;22.10;88.00;;;;;;7393384;19;20008;-65
2022/05/07 13:04:50;;;;;;;12.95;8.60;;;22.60;87.10;;;;;;7394912;19;20070;-65
2022/05/07 13:07:19;;;;;;;11.32;8.07;;;23.40;86.00;;;;;;7397982;19;20042;-66
2022/05/07 13:09:50;;;;;;;10.88;7.53;;;24.20;83.30;;;;;;7394211;19;20070;-66
2022/05/07 13:12:19;;;;;;;10.15;8.00;;;24.50;80.80;;;;;;7396136;19;20384;-66
2022/05/07 13:14:48;;;;;;;9.88;7.60;;;24.20;80.80;;;;;;7394655;19;20002;-66
2022/05/07 13:17:18;;;;;;;10.18;7.90;;;23.40;82.00;;;;;;7394731;19;20017;-65
2022/05/07 13:19:47;;;;;;;13.52;8.63;;;22.70;84.00;;;;;;7394309;19;20018;-65
2022/05/07 13:22:18;;;;;;;13.30;9.27;;;22.10;85.60;;;;;;7397824;19;20017;-65
2022/05/07 13:24:49;;;;;;;14.43;9.40;;;22.10;87.00;;;;;;7403930;19;20010;-65
2022/05/07 13:27:18;;;;;;;14.55;9.55;;;21.70;87.60;;;;;;7401730;19;20323;-65
2022/05/07 13:29:47;;;;;;;14.60;9.98;;;21.70;88.10;;;;;;7401717;19;20018;-65
2022/05/07 13:32:16;;;;;;;16.45;11.18;;;21.30;88.40;;;;;;7401797;19;20003;-65
2022/05/07 13:34:45;;;;;;;15.20;10.57;;;21.80;88.00;;;;;;7401732;19;20354;-65